createdAt,value
2022-07-27T00:00:50.291Z,90.80
2022-07-27T00:03:17.180Z,90.60
2022-07-27T00:05:44.357Z,90.70
2022-07-27T00:08:11.218Z,90.80
2022-07-27T00:10:38.120Z,90.90
2022-07-27T00:13:06.264Z,91.10
2022-07-27T00:15:35.910Z,91.40
2022-07-27T00:18:03.827Z,91.40
2022-07-27T00:20:31.909Z,91.50
2022-07-27T00:22:59.486Z,91.60
2022-07-27T00:25:27.793Z,91.70
2022-07-27T00:27:57.067Z,91.70
2022-07-27T00:30:24.761Z,91.60
2022-07-27T00:32:52.044Z,91.90
2022-07-27T00:35:19.607Z,92.00
2022-07-27T00:37:46.359Z,92.10
2022-07-27T00:40:13.243Z,92.30
2022-07-27T00:42:40.121Z,92.20
2022-07-27T00:45:07.467Z,92.40
2022-07-27T00:47:34.340Z,92.20
2022-07-27T00:50:01.686Z,92.40
2022-07-27T00:52:29.992Z,92.40
2022-07-27T00:54:58.210Z,92.40
2022-07-27T00:57:26.324Z,92.40
2022-07-27T00:59:53.326Z,92.50
2022-07-27T01:02:22.906Z,92.30
2022-07-27T01:04:53.929Z,92.30
2022-07-27T01:07:26.077Z,92.30
2022-07-27T01:09:58.744Z,92.60
2022-07-27T01:12:31.621Z,92.60
2022-07-27T01:14:59.548Z,92.60
2022-07-27T01:17:30.660Z,92.60
2022-07-27T01:19:58.577Z,92.20
2022-07-27T01:22:25.746Z,92.10
2022-07-27T01:24:52.532Z,92.10
2022-07-27T01:27:19.315Z,92.20
2022-07-27T01:29:46.213Z,92.30
2022-07-27T01:32:13.217Z,92.30
2022-07-27T01:34:40.176Z,92.10
2022-07-27T01:37:07.202Z,92.10
2022-07-27T01:39:34.106Z,92.10
2022-07-27T01:42:01.620Z,92.30
2022-07-27T01:44:28.822Z,92.40
2022-07-27T01:46:55.954Z,92.40
2022-07-27T01:49:22.944Z,92.40
2022-07-27T01:51:49.826Z,92.50
2022-07-27T01:54:16.968Z,92.60
2022-07-27T01:56:43.796Z,92.70
2022-07-27T01:59:10.876Z,92.70
2022-07-27T02:01:43.982Z,92.70
2022-07-27T02:04:10.871Z,92.70
2022-07-27T02:06:37.629Z,92.90
2022-07-27T02:09:04.467Z,93.00
2022-07-27T02:11:49.852Z,93.10
2022-07-27T02:14:16.682Z,93.20
2022-07-27T02:16:43.629Z,93.30
2022-07-27T02:19:11.129Z,93.30
2022-07-27T02:21:39.105Z,93.30
2022-07-27T02:24:06.670Z,93.20
2022-07-27T02:26:33.493Z,93.30
2022-07-27T02:29:00.352Z,93.60
2022-07-27T02:31:27.176Z,93.40
2022-07-27T02:33:59.830Z,93.40
2022-07-27T02:36:29.266Z,93.40
2022-07-27T02:38:57.261Z,93.40
2022-07-27T02:41:24.909Z,93.30
2022-07-27T02:43:51.712Z,93.30
2022-07-27T02:46:18.563Z,93.30
2022-07-27T02:48:45.613Z,93.30
2022-07-27T02:51:12.526Z,93.40
2022-07-27T02:53:39.336Z,93.60
2022-07-27T02:56:06.335Z,93.50
2022-07-27T02:58:33.093Z,93.70
2022-07-27T03:00:59.884Z,93.70
2022-07-27T03:03:36.008Z,93.60
2022-07-27T03:06:07.519Z,93.80
2022-07-27T03:08:35.538Z,93.70
2022-07-27T03:11:02.426Z,92.70
2022-07-27T03:13:29.505Z,91.10
2022-07-27T03:15:57.192Z,89.80
2022-07-27T03:18:24.218Z,88.10
2022-07-27T03:20:51.031Z,86.70
2022-07-27T03:23:20.998Z,85.70
2022-07-27T03:25:47.908Z,85.00
2022-07-27T03:28:14.699Z,84.50
2022-07-27T03:30:41.896Z,84.40
2022-07-27T03:33:08.742Z,84.50
2022-07-27T03:35:35.656Z,85.00
2022-07-27T03:38:02.792Z,85.70
2022-07-27T03:40:32.612Z,86.70
2022-07-27T03:43:00.294Z,86.70
2022-07-27T03:45:27.948Z,85.20
2022-07-27T03:47:55.019Z,83.80
2022-07-27T03:50:22.749Z,82.90
2022-07-27T03:52:50.505Z,82.00
2022-07-27T03:55:17.488Z,81.30
2022-07-27T03:57:44.280Z,80.10
2022-07-27T04:00:12.683Z,79.10
2022-07-27T04:02:41.519Z,77.80
2022-07-27T04:05:09.629Z,77.40
2022-07-27T04:07:36.549Z,77.40
2022-07-27T04:10:04.497Z,77.70
2022-07-27T04:12:31.812Z,77.50
2022-07-27T04:14:58.691Z,76.50
2022-07-27T04:17:55.421Z,76.30
2022-07-27T04:20:12.366Z,75.70
2022-07-27T04:22:39.568Z,75.50
2022-07-27T04:25:07.220Z,74.90
2022-07-27T04:27:34.006Z,74.50
2022-07-27T04:30:00.807Z,74.30
2022-07-27T04:32:27.733Z,74.30
2022-07-27T04:34:54.537Z,73.90
2022-07-27T04:37:21.411Z,73.40
2022-07-27T04:39:48.165Z,72.80
2022-07-27T04:42:15.316Z,72.60
2022-07-27T04:44:42.142Z,72.50
2022-07-27T04:47:08.960Z,72.50
2022-07-27T04:49:35.773Z,72.50
2022-07-27T04:52:02.516Z,72.50
2022-07-27T04:54:29.320Z,72.10
2022-07-27T04:56:56.101Z,71.70
2022-07-27T04:59:22.866Z,71.20
2022-07-27T05:01:49.788Z,71.00
2022-07-27T05:04:16.756Z,71.20
2022-07-27T05:06:43.602Z,70.70
2022-07-27T05:09:10.678Z,70.70
2022-07-27T05:11:37.651Z,70.10
2022-07-27T05:14:04.436Z,69.90
2022-07-27T05:16:31.279Z,69.60
2022-07-27T05:18:58.139Z,69.40
2022-07-27T05:21:25.552Z,69.20
2022-07-27T05:23:52.356Z,69.10
2022-07-27T05:26:19.232Z,69.20
2022-07-27T05:28:45.995Z,69.00
2022-07-27T05:31:12.790Z,68.90
2022-07-27T05:33:39.663Z,68.90
2022-07-27T05:36:07.619Z,68.50
2022-07-27T05:38:39.333Z,68.60
2022-07-27T05:41:07.538Z,68.40
2022-07-27T05:43:34.641Z,68.60
2022-07-27T05:46:01.869Z,68.10
2022-07-27T05:48:28.814Z,68.00
2022-07-27T05:50:55.724Z,67.90
2022-07-27T05:53:22.533Z,68.10
2022-07-27T05:55:58.848Z,67.70
2022-07-27T05:58:27.792Z,66.70
2022-07-27T06:00:54.706Z,66.50
2022-07-27T06:03:22.043Z,66.90
2022-07-27T06:05:49.193Z,67.20
2022-07-27T06:08:16.094Z,67.60
2022-07-27T06:10:42.939Z,67.60
2022-07-27T06:13:11.998Z,67.00
2022-07-27T06:15:39.830Z,66.30
2022-07-27T06:18:09.058Z,66.40
2022-07-27T06:20:35.902Z,66.60
2022-07-27T06:23:07.797Z,66.40
2022-07-27T06:25:36.050Z,66.50
2022-07-27T06:28:04.707Z,66.30
2022-07-27T06:30:32.275Z,66.20
2022-07-27T06:32:59.748Z,66.50
2022-07-27T06:35:26.871Z,67.10
2022-07-27T06:37:53.962Z,66.10
2022-07-27T06:40:20.926Z,65.30
2022-07-27T06:42:47.781Z,65.60
2022-07-27T06:45:15.521Z,65.10
2022-07-27T06:47:49.149Z,63.90
2022-07-27T06:50:17.605Z,63.20
2022-07-27T06:52:44.475Z,63.00
2022-07-27T06:55:11.327Z,63.20
2022-07-27T06:57:38.225Z,62.80
2022-07-27T07:00:07.038Z,62.80
2022-07-27T07:02:33.857Z,62.50
2022-07-27T07:05:00.669Z,62.90
2022-07-27T07:07:27.466Z,62.70
2022-07-27T07:09:54.259Z,62.40
2022-07-27T07:12:21.189Z,62.60
2022-07-27T07:14:47.991Z,62.80
2022-07-27T07:17:15.231Z,62.80
2022-07-27T07:19:42.117Z,63.30
2022-07-27T07:22:08.915Z,63.70
2022-07-27T07:24:36.134Z,63.40
2022-07-27T07:27:03.060Z,62.80
2022-07-27T07:29:29.864Z,62.80
2022-07-27T07:31:56.821Z,62.60
2022-07-27T07:34:23.755Z,62.40
2022-07-27T07:36:50.581Z,62.30
2022-07-27T07:39:17.353Z,61.50
2022-07-27T07:41:44.309Z,61.20
2022-07-27T07:44:11.165Z,62.30
2022-07-27T07:46:38.174Z,61.40
2022-07-27T07:49:06.208Z,61.50
2022-07-27T07:51:33.001Z,61.40
2022-07-27T07:53:59.849Z,61.80
2022-07-27T07:56:26.791Z,61.60
2022-07-27T07:58:53.848Z,61.30
2022-07-27T08:01:20.840Z,61.50
2022-07-27T08:03:51.027Z,62.00
2022-07-27T08:06:19.192Z,61.70
2022-07-27T08:08:45.961Z,61.80
2022-07-27T08:11:12.832Z,62.40
2022-07-27T08:13:39.798Z,62.50
2022-07-27T08:16:06.859Z,62.20
2022-07-27T08:18:33.790Z,62.50
2022-07-27T08:21:00.711Z,62.20
2022-07-27T08:23:27.565Z,62.50
2022-07-27T08:25:54.920Z,62.80
2022-07-27T08:28:21.759Z,62.00
2022-07-27T08:30:49.410Z,62.20
2022-07-27T08:33:16.643Z,62.80
2022-07-27T08:35:44.567Z,63.40
2022-07-27T08:38:11.545Z,63.40
2022-07-27T08:40:42.945Z,63.50
2022-07-27T08:43:12.914Z,63.70
2022-07-27T08:45:41.784Z,63.90
2022-07-27T08:48:13.564Z,64.40
2022-07-27T08:50:42.871Z,63.60
2022-07-27T08:53:12.494Z,64.00
2022-07-27T08:55:44.211Z,64.40
2022-07-27T08:58:12.618Z,64.70
2022-07-27T09:00:44.843Z,65.30
2022-07-27T09:03:18.158Z,65.50
2022-07-27T09:05:48.843Z,65.40
2022-07-27T09:08:30.359Z,65.30
2022-07-27T09:10:59.885Z,64.70
2022-07-27T09:13:27.882Z,64.80
2022-07-27T09:16:18.680Z,64.80
2022-07-27T09:18:46.886Z,64.60
2022-07-27T09:21:24.719Z,64.20
2022-07-27T09:24:17.883Z,64.10
2022-07-27T09:27:02.352Z,63.60
2022-07-27T09:29:34.703Z,63.70
2022-07-27T09:32:13.479Z,62.60
2022-07-27T09:34:40.345Z,62.50
2022-07-27T09:37:08.039Z,62.50
2022-07-27T09:39:34.891Z,62.80
2022-07-27T09:42:02.858Z,62.90
2022-07-27T09:44:44.900Z,64.00
2022-07-27T09:47:29.645Z,64.00
2022-07-27T09:50:19.863Z,63.80
2022-07-27T09:52:47.206Z,63.80
2022-07-27T09:55:14.448Z,64.20
2022-07-27T09:58:07.450Z,64.20
2022-07-27T10:00:57.163Z,64.20
2022-07-27T10:03:24.059Z,64.10
2022-07-27T10:05:50.891Z,63.30
2022-07-27T10:08:18.521Z,63.30
2022-07-27T10:10:45.475Z,63.00
2022-07-27T10:13:12.305Z,63.40
2022-07-27T10:15:41.580Z,63.20
2022-07-27T10:18:19.683Z,63.50
2022-07-27T10:20:47.674Z,64.10
2022-07-27T10:23:28.795Z,64.10
2022-07-27T10:26:14.456Z,64.60
2022-07-27T10:28:52.073Z,64.60
2022-07-27T10:31:21.270Z,65.40
2022-07-27T10:33:51.190Z,65.10
2022-07-27T10:36:25.770Z,65.20
2022-07-27T10:38:58.277Z,64.70
2022-07-27T10:41:32.643Z,64.80
2022-07-27T10:44:23.829Z,64.70
2022-07-27T10:47:01.085Z,64.70
2022-07-27T10:49:34.230Z,65.30
2022-07-27T10:52:27.682Z,65.20
2022-07-27T10:54:59.795Z,64.40
2022-07-27T10:57:27.549Z,64.30
2022-07-27T11:00:14.748Z,65.10
2022-07-27T11:02:42.565Z,65.00
2022-07-27T11:05:42.679Z,65.20
2022-07-27T11:08:36.046Z,65.50
2022-07-27T11:10:48.064Z,65.70
2022-07-27T11:13:17.877Z,65.40
2022-07-27T11:15:59.849Z,66.10
2022-07-27T11:18:53.019Z,65.70
2022-07-27T11:21:26.987Z,65.70
2022-07-27T11:23:59.169Z,66.20
2022-07-27T11:26:31.075Z,66.40
2022-07-27T11:28:57.990Z,66.70
2022-07-27T11:31:52.668Z,66.60
2022-07-27T11:34:13.998Z,66.30
2022-07-27T11:36:43.266Z,66.50
2022-07-27T11:39:14.941Z,67.00
2022-07-27T11:44:30.936Z,67.00
2022-07-27T11:47:01.700Z,67.20
2022-07-27T11:49:31.960Z,67.20
2022-07-27T11:52:07.657Z,67.30
2022-07-27T11:54:37.229Z,67.90
2022-07-27T11:57:07.068Z,69.90
2022-07-27T11:59:36.258Z,70.90
2022-07-27T12:02:07.174Z,71.40
2022-07-27T12:04:39.108Z,71.80
2022-07-27T12:07:10.532Z,72.30
2022-07-27T12:09:49.051Z,72.80
2022-07-27T12:12:18.136Z,73.30
2022-07-27T12:14:48.889Z,74.10
2022-07-27T12:17:20.176Z,74.60
2022-07-27T12:20:03.310Z,74.90
2022-07-27T12:22:37.169Z,75.00
2022-07-27T12:25:19.165Z,75.40
2022-07-27T12:27:56.939Z,75.60
2022-07-27T12:30:37.689Z,75.50
2022-07-27T12:33:06.854Z,75.60
2022-07-27T12:35:47.822Z,75.70
2022-07-27T12:38:14.726Z,76.70
2022-07-27T12:40:49.597Z,77.30
2022-07-27T12:43:22.227Z,77.30
2022-07-27T12:45:50.621Z,77.30
2022-07-27T12:48:20.629Z,77.30
2022-07-27T12:50:57.307Z,77.10
2022-07-27T12:53:24.241Z,77.00
2022-07-27T12:55:51.239Z,76.40
2022-07-27T12:58:18.019Z,75.80
2022-07-27T13:00:44.895Z,75.80
2022-07-27T13:03:11.822Z,75.50
2022-07-27T13:05:38.839Z,75.60
2022-07-27T13:08:06.357Z,76.00
2022-07-27T13:10:34.038Z,75.60
2022-07-27T13:13:00.828Z,75.30
2022-07-27T13:15:27.743Z,75.40
2022-07-27T13:17:54.592Z,75.70
2022-07-27T13:20:21.463Z,76.40
2022-07-27T13:22:48.822Z,76.10
2022-07-27T13:25:17.554Z,76.70
2022-07-27T13:27:49.648Z,77.50
2022-07-27T13:30:18.411Z,78.00
2022-07-27T13:32:48.456Z,78.30
2022-07-27T13:35:17.079Z,78.80
2022-07-27T13:37:45.062Z,79.30
2022-07-27T13:40:12.621Z,80.70
2022-07-27T13:42:39.579Z,81.50
2022-07-27T13:45:10.438Z,82.80
2022-07-27T13:47:39.671Z,83.30
2022-07-27T13:50:15.046Z,83.60
2022-07-27T13:52:46.066Z,82.80
2022-07-27T13:55:14.490Z,82.90
2022-07-27T13:57:42.483Z,82.70
2022-07-27T14:00:10.440Z,83.10
2022-07-27T14:02:37.339Z,83.10
2022-07-27T14:05:06.092Z,83.20
2022-07-27T14:07:33.734Z,83.60
2022-07-27T14:10:19.027Z,84.30
2022-07-27T14:12:46.181Z,85.20
2022-07-27T14:15:13.460Z,85.70
2022-07-27T14:17:40.355Z,85.80
2022-07-27T14:20:08.695Z,86.40
2022-07-27T14:22:35.635Z,86.40
2022-07-27T14:25:02.521Z,86.70
2022-07-27T14:27:33.676Z,87.20
2022-07-27T14:30:06.820Z,88.10
2022-07-27T14:32:35.352Z,88.30
2022-07-27T14:35:02.878Z,88.60
2022-07-27T14:37:29.708Z,89.30
2022-07-27T14:39:56.704Z,90.30
2022-07-27T14:42:25.021Z,90.70
2022-07-27T14:44:52.067Z,91.10
2022-07-27T14:47:19.420Z,91.50
2022-07-27T14:49:46.549Z,92.30
2022-07-27T14:52:13.624Z,92.60
2022-07-27T14:54:45.612Z,93.20
2022-07-27T14:57:13.056Z,93.50
2022-07-27T14:59:40.101Z,94.10
2022-07-27T15:02:07.675Z,94.70
2022-07-27T15:04:34.613Z,94.90
2022-07-27T15:07:01.975Z,95.60
2022-07-27T15:09:30.599Z,96.00
2022-07-27T15:11:59.045Z,96.70
2022-07-27T15:14:27.010Z,97.30
2022-07-27T15:16:54.484Z,97.60
2022-07-27T15:19:21.334Z,98.10
2022-07-27T15:21:48.311Z,98.50
2022-07-27T15:24:15.434Z,98.90
2022-07-27T15:26:42.769Z,99.20
2022-07-27T15:29:15.641Z,99.50
2022-07-27T15:31:43.462Z,99.50
2022-07-27T15:34:10.556Z,99.80
2022-07-27T15:36:43.599Z,99.90
2022-07-27T15:39:12.646Z,99.90
2022-07-27T15:41:40.087Z,99.90
2022-07-27T15:44:07.311Z,99.80
2022-07-27T15:46:34.726Z,99.80
2022-07-27T15:49:01.754Z,99.90
2022-07-27T15:51:28.866Z,99.90
2022-07-27T15:53:57.197Z,99.90
2022-07-27T15:56:25.051Z,99.90
2022-07-27T15:58:52.239Z,99.90
2022-07-27T16:01:20.808Z,99.90
2022-07-27T16:03:49.169Z,99.90
2022-07-27T16:06:16.805Z,99.90
2022-07-27T16:08:46.385Z,99.90
2022-07-27T16:11:13.290Z,99.90
2022-07-27T16:13:40.348Z,99.80
2022-07-27T16:16:24.541Z,99.70
2022-07-27T16:18:53.527Z,99.80
2022-07-27T16:21:22.582Z,99.70
2022-07-27T16:23:51.055Z,99.10
2022-07-27T16:26:18.123Z,98.80
2022-07-27T16:28:47.196Z,99.00
2022-07-27T16:31:16.240Z,98.90
2022-07-27T16:33:44.558Z,98.40
2022-07-27T16:36:11.785Z,98.00
2022-07-27T16:38:49.820Z,97.40
2022-07-27T16:41:19.859Z,97.40
2022-07-27T16:43:47.424Z,96.70
2022-07-27T16:46:14.502Z,96.70
2022-07-27T16:48:43.240Z,96.40
2022-07-27T16:51:14.994Z,96.60
2022-07-27T16:53:43.594Z,96.70
2022-07-27T16:56:11.403Z,96.20
2022-07-27T16:58:39.496Z,96.00
2022-07-27T17:01:07.072Z,95.70
2022-07-27T17:03:34.267Z,95.80
2022-07-27T17:06:05.994Z,95.50
2022-07-27T17:08:33.936Z,94.90
2022-07-27T17:11:02.544Z,95.10
2022-07-27T17:13:33.636Z,95.00
2022-07-27T17:16:05.788Z,95.00
2022-07-27T17:18:39.443Z,94.90
2022-07-27T17:21:09.475Z,94.80
2022-07-27T17:23:38.323Z,95.00
2022-07-27T17:26:07.055Z,95.00
2022-07-27T17:28:36.863Z,95.30
2022-07-27T17:31:04.578Z,95.50
2022-07-27T17:33:31.938Z,95.60
2022-07-27T17:35:59.842Z,95.60
2022-07-27T17:38:27.184Z,95.90
2022-07-27T17:40:54.431Z,96.20
2022-07-27T17:43:21.378Z,96.40
2022-07-27T17:45:48.608Z,96.80
2022-07-27T17:48:15.538Z,97.00
2022-07-27T17:50:42.298Z,97.50
2022-07-27T17:53:09.118Z,98.20
2022-07-27T17:55:37.862Z,98.80
2022-07-27T17:58:04.765Z,99.10
2022-07-27T18:00:31.677Z,99.40
2022-07-27T18:02:58.463Z,99.70
2022-07-27T18:05:25.399Z,99.90
2022-07-27T18:07:53.828Z,99.90
2022-07-27T18:10:20.902Z,99.90
2022-07-27T18:12:47.855Z,99.90
2022-07-27T18:15:33.879Z,99.90
2022-07-27T18:18:01.010Z,99.90
2022-07-27T18:20:27.891Z,99.90
2022-07-27T18:22:54.771Z,99.90
2022-07-27T18:25:22.163Z,99.90
2022-07-27T18:27:50.330Z,99.90
2022-07-27T18:30:17.961Z,99.90
2022-07-27T18:32:45.537Z,99.90
2022-07-27T18:35:12.886Z,99.90
2022-07-27T18:37:39.894Z,99.90
2022-07-27T18:40:09.056Z,99.90
2022-07-27T18:42:37.334Z,99.90
2022-07-27T18:45:06.365Z,99.90
2022-07-27T18:47:33.326Z,99.90
2022-07-27T18:50:00.357Z,99.90
2022-07-27T18:52:27.400Z,99.90
2022-07-27T18:54:54.313Z,99.90
2022-07-27T18:57:21.599Z,99.90
2022-07-27T18:59:49.152Z,99.90
2022-07-27T19:02:16.908Z,99.90
2022-07-27T19:04:43.905Z,99.90
2022-07-27T19:07:11.324Z,99.90
2022-07-27T19:09:42.565Z,99.90
2022-07-27T19:12:10.039Z,99.90
2022-07-27T19:14:37.225Z,99.90
2022-07-27T19:17:04.586Z,99.90
2022-07-27T19:19:31.709Z,99.90
2022-07-27T19:21:58.737Z,99.90
2022-07-27T19:24:25.943Z,99.90
2022-07-27T19:26:53.098Z,99.90
2022-07-27T19:29:21.374Z,99.90
2022-07-27T19:31:48.638Z,99.90
2022-07-27T19:34:15.756Z,99.90
2022-07-27T19:36:42.681Z,99.90
2022-07-27T19:39:09.981Z,99.90
2022-07-27T19:41:37.249Z,99.90
2022-07-27T19:44:05.117Z,99.90
2022-07-27T19:46:32.098Z,99.90
2022-07-27T19:48:59.077Z,99.90
2022-07-27T19:51:26.114Z,99.90
2022-07-27T19:53:53.854Z,99.90
2022-07-27T19:56:20.792Z,99.90
2022-07-27T19:58:47.593Z,99.90
2022-07-27T20:01:14.455Z,99.90
2022-07-27T20:03:47.399Z,99.90
2022-07-27T20:06:20.597Z,99.90
2022-07-27T20:08:48.013Z,99.90
2022-07-27T20:11:14.800Z,99.90
2022-07-27T20:13:41.641Z,99.90
2022-07-27T20:16:08.444Z,99.90
2022-07-27T20:18:36.901Z,99.90
2022-07-27T20:21:03.903Z,99.90
2022-07-27T20:23:44.187Z,99.90
2022-07-27T20:26:12.358Z,99.90
2022-07-27T20:28:39.700Z,99.90
2022-07-27T20:31:06.798Z,99.90
2022-07-27T20:33:33.686Z,99.90
2022-07-27T20:36:00.842Z,99.90
2022-07-27T20:38:27.733Z,99.90
2022-07-27T20:40:55.215Z,99.90
2022-07-27T20:43:22.025Z,99.90
2022-07-27T20:45:48.920Z,99.90
2022-07-27T20:48:15.822Z,99.90
2022-07-27T20:50:42.875Z,99.90
2022-07-27T20:53:09.674Z,99.90
2022-07-27T20:55:36.621Z,99.90
2022-07-27T20:58:04.140Z,99.90
2022-07-27T21:00:30.926Z,99.90
2022-07-27T21:02:57.864Z,99.90
2022-07-27T21:05:27.158Z,99.90
2022-07-27T21:07:57.627Z,99.90
2022-07-27T21:10:25.370Z,99.90
2022-07-27T21:12:52.356Z,99.90
2022-07-27T21:15:19.439Z,99.90
2022-07-27T21:17:46.368Z,99.90
2022-07-27T21:20:14.913Z,99.90
2022-07-27T21:22:43.193Z,99.90
2022-07-27T21:25:11.459Z,99.90
2022-07-27T21:27:41.274Z,99.90
2022-07-27T21:30:09.616Z,99.90
2022-07-27T21:32:36.424Z,99.90
2022-07-27T21:35:06.990Z,99.90
2022-07-27T21:37:34.160Z,99.90
2022-07-27T21:40:00.961Z,99.90
2022-07-27T21:42:28.537Z,99.90
2022-07-27T21:44:55.375Z,99.90
2022-07-27T21:47:22.141Z,99.90
2022-07-27T21:49:48.964Z,99.90
2022-07-27T21:52:15.768Z,99.90
2022-07-27T21:54:42.538Z,99.90
2022-07-27T21:57:09.326Z,99.90
2022-07-27T21:59:36.143Z,99.90
2022-07-27T22:02:03.034Z,99.90
2022-07-27T22:04:29.978Z,99.90
2022-07-27T22:06:57.385Z,99.90
2022-07-27T22:09:24.147Z,99.90
2022-07-27T22:11:50.965Z,99.90
2022-07-27T22:14:18.101Z,99.90
2022-07-27T22:16:45.035Z,99.90
2022-07-27T22:19:11.947Z,99.90
2022-07-27T22:21:38.742Z,99.90
2022-07-27T22:24:06.089Z,99.90
2022-07-27T22:26:32.868Z,99.90
2022-07-27T22:28:59.722Z,99.90
2022-07-27T22:31:26.596Z,99.90
2022-07-27T22:33:53.432Z,99.90
2022-07-27T22:36:20.246Z,99.90
2022-07-27T22:38:47.096Z,99.90
2022-07-27T22:41:14.076Z,99.90
2022-07-27T22:43:41.135Z,99.90
2022-07-27T22:46:10.044Z,99.90
2022-07-27T22:48:37.031Z,99.90
2022-07-27T22:51:03.976Z,99.90
2022-07-27T22:53:30.894Z,99.90
2022-07-27T22:55:57.723Z,99.90
2022-07-27T22:58:24.593Z,99.90
2022-07-27T23:00:54.694Z,99.90
2022-07-27T23:03:25.827Z,99.90
2022-07-27T23:05:52.619Z,99.90
2022-07-27T23:08:19.395Z,99.90
2022-07-27T23:10:46.238Z,99.90
2022-07-27T23:13:14.901Z,99.90
2022-07-27T23:15:42.088Z,99.90
2022-07-27T23:18:09.471Z,99.90
2022-07-27T23:20:37.410Z,99.90
2022-07-27T23:23:05.242Z,99.90
2022-07-27T23:25:42.493Z,99.90
2022-07-27T23:28:09.352Z,99.90
2022-07-27T23:30:36.098Z,99.90
2022-07-27T23:33:03.159Z,99.90
2022-07-27T23:35:30.171Z,99.90
2022-07-27T23:37:57.050Z,99.90
2022-07-27T23:40:24.004Z,99.90
2022-07-27T23:42:50.841Z,99.90
2022-07-27T23:45:17.974Z,99.90
2022-07-27T23:47:45.257Z,99.90
2022-07-27T23:50:14.485Z,99.90
2022-07-27T23:52:41.325Z,99.90
2022-07-27T23:55:08.299Z,99.90
2022-07-27T23:57:35.322Z,99.90
